Time;durP1;ratioP1;P1;durP2;ratioP2;P2;SDS_P1;SDS_P2;PMS_P1;PMS_P2;Temp;Humidity;BMP_temperature;BMP_pressure;BME280_temperature;BME280_humidity;BME280_pressure;Samples;Min_cycle;Max_cycle;Signal;HPM_P1;HPM_P2
2022/02/25 00:00:47;;;;;;;6.57;4.28;;;9.80;56.70;;;;;;5054239;28;20049;-80
2022/02/25 00:03:14;;;;;;;6.10;4.38;;;9.80;56.60;;;;;;5038233;28;20051;-78
2022/02/25 00:05:41;;;;;;;5.18;4.10;;;9.80;56.60;;;;;;5055335;28;20551;-78
2022/02/25 00:08:08;;;;;;;7.90;4.13;;;9.80;56.60;;;;;;5039311;28;20036;-78
2022/02/25 00:10:34;;;;;;;5.35;3.97;;;9.80;56.60;;;;;;5027230;28;20587;-79
2022/02/25 00:13:01;;;;;;;6.30;3.85;;;9.80;56.50;;;;;;5054780;28;20038;-80
2022/02/25 00:15:27;;;;;;;8.07;3.72;;;9.80;56.50;;;;;;5054895;28;20122;-78
2022/02/25 00:17:53;;;;;;;5.72;3.85;;;9.80;56.50;;;;;;5054608;28;20171;-78
2022/02/25 00:20:19;;;;;;;8.07;4.18;;;9.80;56.50;;;;;;5036965;28;20033;-78
2022/02/25 00:22:45;;;;;;;4.70;3.90;;;9.80;56.50;;;;;;5035785;28;20043;-78
2022/02/25 00:25:11;;;;;;;5.10;3.67;;;9.80;56.40;;;;;;5053400;28;20051;-78
2022/02/25 00:27:42;;;;;;;4.57;3.35;;;9.80;56.40;;;;;;5055446;28;20041;-77
2022/02/25 00:30:10;;;;;;;7.63;4.10;;;9.70;56.40;;;;;;5036380;28;20478;-79
2022/02/25 00:32:36;;;;;;;7.20;4.03;;;9.80;56.40;;;;;;5056007;28;20033;-78
2022/02/25 00:35:02;;;;;;;6.97;3.80;;;9.80;56.50;;;;;;5054035;28;20043;-78
2022/02/25 00:37:29;;;;;;;6.95;4.07;;;9.70;56.40;;;;;;5055019;28;20037;-77
2022/02/25 00:39:55;;;;;;;6.70;4.00;;;9.70;56.50;;;;;;5037512;28;20744;-78
2022/02/25 00:42:20;;;;;;;6.43;3.80;;;9.70;56.40;;;;;;5055130;28;20033;-77
2022/02/25 00:44:47;;;;;;;6.50;4.18;;;9.70;56.40;;;;;;5055807;28;20574;-80
2022/02/25 00:47:13;;;;;;;6.32;3.60;;;9.70;56.50;;;;;;5037701;28;20040;-80
2022/02/25 00:49:39;;;;;;;7.53;3.97;;;9.70;56.50;;;;;;5037195;28;20032;-80
2022/02/25 00:52:05;;;;;;;6.32;4.18;;;9.70;56.50;;;;;;5053537;28;20032;-79
2022/02/25 00:54:31;;;;;;;6.72;4.28;;;9.70;56.40;;;;;;5055271;28;20124;-79
2022/02/25 00:56:57;;;;;;;7.85;4.10;;;9.70;56.40;;;;;;5052291;28;20117;-80
2022/02/25 00:59:23;;;;;;;5.95;4.13;;;9.70;56.50;;;;;;5054643;28;20033;-77
2022/02/25 01:01:50;;;;;;;9.40;4.25;;;9.70;56.40;;;;;;5055318;28;20128;-79
2022/02/25 01:04:16;;;;;;;6.47;4.53;;;9.70;56.40;;;;;;5039207;28;20045;-79
2022/02/25 01:06:42;;;;;;;7.25;3.88;;;9.70;56.50;;;;;;5053102;28;20051;-79
2022/02/25 01:09:11;;;;;;;6.88;3.85;;;9.70;56.40;;;;;;5053463;28;20529;-78
2022/02/25 01:11:38;;;;;;;9.30;5.07;;;9.70;56.50;;;;;;5052654;28;20126;-79
2022/02/25 01:14:05;;;;;;;8.15;4.45;;;9.70;56.50;;;;;;5036024;28;20132;-79
2022/02/25 01:16:31;;;;;;;7.80;4.70;;;9.70;56.60;;;;;;5054037;28;20025;-81
2022/02/25 01:18:57;;;;;;;8.38;4.40;;;9.70;56.70;;;;;;5056238;28;20043;-78
2022/02/25 01:21:23;;;;;;;6.68;4.68;;;9.70;56.70;;;;;;5054135;28;20036;-76
2022/02/25 01:23:49;;;;;;;8.15;4.20;;;9.60;56.70;;;;;;5053477;28;20055;-78
2022/02/25 01:26:15;;;;;;;8.60;4.80;;;9.70;56.70;;;;;;5016926;28;20044;-79
2022/02/25 01:28:41;;;;;;;8.10;4.82;;;9.70;56.60;;;;;;5067340;28;20458;-78
2022/02/25 01:31:08;;;;;;;6.38;4.72;;;9.70;56.60;;;;;;5036049;28;20032;-79
2022/02/25 01:33:34;;;;;;;9.35;5.22;;;9.60;56.50;;;;;;5052738;28;20053;-79
2022/02/25 01:36:00;;;;;;;10.60;5.00;;;9.70;56.60;;;;;;5054189;28;21113;-78
2022/02/25 01:38:28;;;;;;;10.50;4.82;;;9.70;56.60;;;;;;5055661;28;20024;-79
2022/02/25 01:40:54;;;;;;;6.55;4.50;;;9.70;56.70;;;;;;5052716;28;20063;-80
2022/02/25 01:43:22;;;;;;;10.57;5.22;;;9.60;56.50;;;;;;5053674;28;20040;-78
2022/02/25 01:45:49;;;;;;;7.70;5.30;;;9.60;56.60;;;;;;5052014;28;20029;-78
2022/02/25 01:48:15;;;;;;;10.40;6.00;;;9.60;56.50;;;;;;5036813;28;20060;-78
2022/02/25 01:50:43;;;;;;;8.88;5.28;;;9.60;56.60;;;;;;5034954;28;20097;-78
2022/02/25 01:53:09;;;;;;;8.82;5.20;;;9.60;56.50;;;;;;5054614;28;20557;-77
2022/02/25 01:55:38;;;;;;;9.15;5.40;;;9.60;56.50;;;;;;5034127;28;20036;-79
2022/02/25 01:58:05;;;;;;;10.32;5.53;;;9.60;56.50;;;;;;5033761;28;20052;-78
2022/02/25 02:00:32;;;;;;;11.80;5.93;;;9.60;56.50;;;;;;5036097;28;20426;-78
2022/02/25 02:02:58;;;;;;;9.55;5.72;;;9.60;56.50;;;;;;5034918;28;20450;-79
2022/02/25 02:05:24;;;;;;;9.02;5.82;;;9.60;56.50;;;;;;5020459;28;20539;-78
2022/02/25 02:07:51;;;;;;;10.48;5.90;;;9.60;56.50;;;;;;5052430;28;20044;-80
2022/02/25 02:10:18;;;;;;;8.05;5.53;;;9.60;56.60;;;;;;5053511;28;20044;-80
2022/02/25 02:12:44;;;;;;;11.57;5.70;;;9.60;56.50;;;;;;5034960;28;20412;-79
2022/02/25 02:15:11;;;;;;;10.93;5.75;;;9.60;56.50;;;;;;5069110;28;20465;-79
2022/02/25 02:17:37;;;;;;;9.00;5.80;;;9.60;56.60;;;;;;5053924;28;20425;-79
2022/02/25 02:20:05;;;;;;;10.32;6.28;;;9.60;56.60;;;;;;5053198;28;20500;-79
2022/02/25 02:22:31;;;;;;;11.50;6.45;;;9.60;56.50;;;;;;5055357;28;20036;-80
2022/02/25 02:24:59;;;;;;;10.55;6.03;;;9.60;56.60;;;;;;5032625;28;20087;-79
2022/02/25 02:28:17;;;;;;;10.00;5.60;;;9.60;56.50;;;;;;5053120;28;20040;-79
2022/02/25 02:30:16;;;;;;;14.10;6.85;;;9.60;56.50;;;;;;5052216;28;20082;-78
2022/02/25 02:32:41;;;;;;;9.77;6.13;;;9.60;56.50;;;;;;5053365;28;20033;-77
2022/02/25 02:35:08;;;;;;;11.27;5.80;;;9.50;56.40;;;;;;5054625;28;20032;-78
2022/02/25 02:37:34;;;;;;;10.60;5.93;;;9.50;56.40;;;;;;5051960;28;20040;-78
2022/02/25 02:40:00;;;;;;;9.20;5.60;;;9.50;56.40;;;;;;5036476;28;20141;-78
2022/02/25 02:42:26;;;;;;;8.15;6.05;;;9.50;56.50;;;;;;5053033;28;20059;-79
2022/02/25 02:44:52;;;;;;;11.43;5.75;;;9.50;56.40;;;;;;5053433;28;20516;-79
2022/02/25 02:47:18;;;;;;;9.73;5.88;;;9.50;56.50;;;;;;5051996;28;20040;-78
2022/02/25 02:49:44;;;;;;;9.55;6.50;;;9.50;56.50;;;;;;5051420;28;20032;-79
2022/02/25 02:52:10;;;;;;;12.00;5.80;;;9.50;56.50;;;;;;5053535;28;20083;-79
2022/02/25 02:54:36;;;;;;;9.98;5.82;;;9.50;56.50;;;;;;5052213;28;20038;-78
2022/02/25 02:57:02;;;;;;;7.93;4.80;;;9.50;56.60;;;;;;5034517;28;20037;-78
2022/02/25 02:59:28;;;;;;;10.30;5.57;;;9.50;56.70;;;;;;5035580;28;20029;-78
2022/02/25 03:01:54;;;;;;;8.63;5.15;;;9.50;56.80;;;;;;5052035;28;20539;-77
2022/02/25 03:04:19;;;;;;;10.32;5.40;;;9.50;56.70;;;;;;5051189;28;20140;-78
2022/02/25 03:06:45;;;;;;;9.65;5.72;;;9.50;56.60;;;;;;5053391;28;20048;-77
2022/02/25 03:09:12;;;;;;;9.10;5.65;;;9.50;56.80;;;;;;5055352;28;20039;-77
2022/02/25 03:11:39;;;;;;;11.57;5.47;;;9.50;57.30;;;;;;5054461;28;20056;-80
2022/02/25 03:14:05;;;;;;;9.90;5.15;;;9.50;56.80;;;;;;5038968;28;20445;-78
2022/02/25 03:16:32;;;;;;;8.07;5.50;;;9.50;56.80;;;;;;5056265;28;20512;-78
2022/02/25 03:18:58;;;;;;;8.40;5.32;;;9.50;56.80;;;;;;5056815;28;20522;-80
2022/02/25 03:21:24;;;;;;;8.27;5.47;;;9.50;56.80;;;;;;5039478;28;20037;-79
2022/02/25 03:23:50;;;;;;;9.05;5.45;;;9.50;56.70;;;;;;5057173;28;20549;-80
2022/02/25 03:26:17;;;;;;;8.05;5.53;;;9.50;56.70;;;;;;5037897;28;20029;-77
2022/02/25 03:28:43;;;;;;;8.43;5.30;;;9.40;56.70;;;;;;5036892;28;20036;-78
2022/02/25 03:31:09;;;;;;;10.00;5.05;;;9.40;56.70;;;;;;5057793;28;20035;-80
2022/02/25 03:33:35;;;;;;;8.55;5.22;;;9.40;56.80;;;;;;5039128;28;20508;-75
2022/02/25 03:36:01;;;;;;;8.57;5.10;;;9.40;56.70;;;;;;5055916;28;20515;-74
2022/02/25 03:38:27;;;;;;;7.22;5.20;;;9.50;56.80;;;;;;5054162;28;20312;-75
2022/02/25 03:40:53;;;;;;;9.63;5.18;;;9.50;57.00;;;;;;5038732;28;20036;-78
2022/02/25 03:43:19;;;;;;;5.53;4.80;;;9.40;56.90;;;;;;5038175;28;20036;-77
2022/02/25 03:45:45;;;;;;;8.00;5.65;;;9.40;56.90;;;;;;5016011;28;20116;-74
2022/02/25 03:48:11;;;;;;;8.93;5.80;;;9.40;56.90;;;;;;5055212;28;20082;-76
2022/02/25 03:50:38;;;;;;;8.43;5.18;;;9.40;57.00;;;;;;5054119;28;20416;-76
2022/02/25 03:53:04;;;;;;;7.50;4.75;;;9.40;57.00;;;;;;5056082;28;20032;-76
2022/02/25 03:55:29;;;;;;;9.18;5.65;;;9.40;56.90;;;;;;5036960;28;20033;-76
2022/02/25 03:57:55;;;;;;;9.85;5.05;;;9.40;57.00;;;;;;5055857;28;20041;-75
2022/02/25 04:00:21;;;;;;;8.00;5.43;;;9.40;57.10;;;;;;5035865;28;20044;-76
2022/02/25 04:02:47;;;;;;;10.27;5.68;;;9.40;57.00;;;;;;5054556;28;20036;-76
2022/02/25 04:05:14;;;;;;;7.60;5.15;;;9.40;57.10;;;;;;5037371;28;20048;-76
2022/02/25 04:07:43;;;;;;;8.20;4.93;;;9.40;57.10;;;;;;5053865;28;21291;-77
2022/02/25 04:10:12;;;;;;;8.32;5.72;;;9.40;57.10;;;;;;5055396;28;20032;-76
2022/02/25 04:12:39;;;;;;;8.27;5.13;;;9.40;57.10;;;;;;5054086;28;20522;-76
2022/02/25 04:15:07;;;;;;;9.07;5.30;;;9.40;57.10;;;;;;5055102;28;20508;-75
2022/02/25 04:17:33;;;;;;;9.52;5.32;;;9.40;57.10;;;;;;5054892;28;20037;-76
2022/02/25 04:19:59;;;;;;;10.70;5.40;;;9.40;57.00;;;;;;5054774;28;20039;-76
2022/02/25 04:22:25;;;;;;;11.13;5.70;;;9.40;56.90;;;;;;5055037;28;20032;-74
2022/02/25 04:24:51;;;;;;;7.70;5.60;;;9.40;56.80;;;;;;5055378;28;20121;-74
2022/02/25 04:27:17;;;;;;;10.35;6.43;;;9.40;56.90;;;;;;5054686;28;20136;-74
2022/02/25 04:29:44;;;;;;;9.32;5.50;;;9.40;56.90;;;;;;5054576;28;20029;-74
2022/02/25 04:32:10;;;;;;;10.05;6.30;;;9.40;56.80;;;;;;5054578;28;20036;-74
2022/02/25 04:34:35;;;;;;;10.55;5.72;;;9.40;56.90;;;;;;5055298;28;20037;-75
2022/02/25 04:37:01;;;;;;;9.00;5.93;;;9.40;57.00;;;;;;5037084;28;20085;-74
2022/02/25 04:39:27;;;;;;;11.60;6.35;;;9.40;57.00;;;;;;5055200;28;20124;-74
2022/02/25 04:41:55;;;;;;;8.73;5.70;;;9.40;57.10;;;;;;5052601;28;20032;-75
2022/02/25 04:44:22;;;;;;;9.95;6.35;;;9.30;57.00;;;;;;5056055;28;20036;-77
2022/02/25 04:46:48;;;;;;;9.40;6.00;;;9.40;57.20;;;;;;5055297;28;20036;-77
2022/02/25 04:49:15;;;;;;;8.98;5.32;;;9.40;57.20;;;;;;5055130;28;20037;-78
2022/02/25 04:51:41;;;;;;;10.07;6.10;;;9.30;57.10;;;;;;5036745;28;20075;-78
2022/02/25 04:54:07;;;;;;;10.38;6.03;;;9.40;57.30;;;;;;5042829;28;20028;-77
2022/02/25 04:56:35;;;;;;;10.00;6.15;;;9.40;57.40;;;;;;5055129;28;20029;-78
2022/02/25 04:59:01;;;;;;;11.75;6.53;;;9.40;57.50;;;;;;5051879;28;20086;-77
2022/02/25 05:01:27;;;;;;;9.35;6.13;;;9.40;57.60;;;;;;5055748;28;20041;-79
2022/02/25 05:03:53;;;;;;;9.60;5.80;;;9.40;57.70;;;;;;5035392;28;20114;-78
2022/02/25 05:06:19;;;;;;;11.07;6.35;;;9.40;57.80;;;;;;5054958;28;20048;-81
2022/02/25 05:08:45;;;;;;;10.50;6.50;;;9.40;57.80;;;;;;5054471;28;20068;-80
2022/02/25 05:11:11;;;;;;;11.88;6.70;;;9.40;57.80;;;;;;5056117;28;20044;-78
2022/02/25 05:13:37;;;;;;;11.85;6.82;;;9.40;57.60;;;;;;5055330;28;20075;-77
2022/02/25 05:21:33;;;;;;;10.80;7.03;;;9.40;57.50;;;;;;5056386;28;20067;-85
2022/02/25 05:23:59;;;;;;;11.70;7.57;;;9.40;57.60;;;;;;5054094;28;20412;-84
2022/02/25 05:26:25;;;;;;;12.27;6.82;;;9.40;57.70;;;;;;5036987;28;20127;-84
2022/02/25 05:28:51;;;;;;;11.63;6.95;;;9.40;57.80;;;;;;5054925;28;20033;-81
2022/02/25 05:31:17;;;;;;;11.50;7.15;;;9.50;57.80;;;;;;5054125;28;20041;-83
2022/02/25 05:33:43;;;;;;;10.60;7.30;;;9.50;57.80;;;;;;5054114;28;20036;-83
2022/02/25 05:36:10;;;;;;;12.63;7.30;;;9.60;57.70;;;;;;5053444;28;20462;-82
2022/02/25 05:38:36;;;;;;;12.57;6.28;;;9.70;57.90;;;;;;5051420;28;20032;-82
2022/02/25 05:41:02;;;;;;;10.20;6.70;;;9.80;57.70;;;;;;5051878;28;20560;-84
2022/02/25 05:43:28;;;;;;;12.57;6.97;;;9.80;57.50;;;;;;5054120;28;20033;-84
2022/02/25 05:45:54;;;;;;;11.00;7.07;;;10.00;57.30;;;;;;5052745;28;20033;-84
2022/02/25 05:48:20;;;;;;;16.70;8.82;;;10.10;57.20;;;;;;5053737;28;20137;-78
2022/02/25 05:50:46;;;;;;;16.35;9.30;;;10.00;57.00;;;;;;5055151;28;20414;-81
2022/02/25 05:53:12;;;;;;;16.27;9.35;;;10.10;55.20;;;;;;5054974;28;20066;-81
2022/02/25 05:55:37;;;;;;;19.10;9.45;;;10.00;54.10;;;;;;5034022;28;20032;-83
2022/02/25 05:58:03;;;;;;;20.80;9.57;;;10.00;53.70;;;;;;5054175;28;20119;-81
2022/02/25 06:00:30;;;;;;;18.13;9.80;;;9.90;53.50;;;;;;5053516;28;20523;-82
2022/02/25 06:02:56;;;;;;;16.40;9.85;;;9.90;53.70;;;;;;5035424;28;20048;-80
2022/02/25 06:05:22;;;;;;;19.02;10.02;;;9.80;53.50;;;;;;5051729;28;20063;-80
2022/02/25 06:07:49;;;;;;;17.92;9.60;;;9.80;53.60;;;;;;5026012;28;20079;-81
2022/02/25 06:10:15;;;;;;;17.98;9.60;;;9.80;53.50;;;;;;5035272;28;20028;-83
2022/02/25 06:12:41;;;;;;;15.05;9.82;;;9.90;53.50;;;;;;5035949;28;21084;-82
2022/02/25 06:15:08;;;;;;;16.85;9.45;;;9.90;53.30;;;;;;5035264;28;20033;-84
2022/02/25 06:17:43;;;;;;;16.80;10.00;;;9.90;53.20;;;;;;5051584;28;20040;-82
2022/02/25 06:20:09;;;;;;;16.55;10.10;;;9.90;53.10;;;;;;5053700;28;20028;-81
2022/02/25 06:22:35;;;;;;;16.13;9.68;;;9.90;52.90;;;;;;5035007;28;20039;-83
2022/02/25 06:25:01;;;;;;;16.85;9.63;;;10.00;52.80;;;;;;5053497;28;20033;-81
2022/02/25 06:27:27;;;;;;;18.63;9.23;;;10.00;52.90;;;;;;5054612;28;20029;-81
2022/02/25 06:29:54;;;;;;;16.70;9.25;;;10.10;52.90;;;;;;5034229;28;20044;-80
2022/02/25 06:32:19;;;;;;;13.75;9.38;;;10.20;52.60;;;;;;5054187;28;20028;-82
2022/02/25 06:34:45;;;;;;;18.17;10.18;;;10.20;52.60;;;;;;5052400;28;20082;-81
2022/02/25 06:37:11;;;;;;;17.17;9.60;;;10.20;52.40;;;;;;5052516;28;20388;-81
2022/02/25 06:39:37;;;;;;;15.95;9.60;;;10.30;52.20;;;;;;5053817;28;20120;-81
2022/02/25 06:42:03;;;;;;;15.77;9.60;;;10.30;52.40;;;;;;5053330;28;20120;-83
2022/02/25 06:44:29;;;;;;;17.48;9.43;;;10.40;52.20;;;;;;5039540;28;20033;-82
2022/02/25 06:46:55;;;;;;;16.83;10.25;;;10.50;52.30;;;;;;5038183;28;20067;-83
2022/02/25 06:49:21;;;;;;;14.52;8.88;;;10.50;52.10;;;;;;5039123;28;20040;-80
2022/02/25 06:51:47;;;;;;;14.60;9.85;;;10.60;51.90;;;;;;5038230;28;20039;-83
2022/02/25 06:54:13;;;;;;;17.48;9.82;;;10.60;51.90;;;;;;5039851;28;20032;-83
2022/02/25 06:56:39;;;;;;;15.52;9.57;;;10.80;51.80;;;;;;5056750;28;20029;-83
2022/02/25 06:59:05;;;;;;;16.75;10.20;;;10.80;51.70;;;;;;5057199;28;20063;-81
2022/02/25 07:01:31;;;;;;;15.30;10.05;;;10.80;51.60;;;;;;5039030;28;20025;-82
2022/02/25 07:03:58;;;;;;;15.68;9.63;;;10.90;51.40;;;;;;5038982;28;20046;-82
2022/02/25 07:06:24;;;;;;;18.83;9.82;;;11.00;51.40;;;;;;5021204;28;20519;-82
2022/02/25 07:08:52;;;;;;;15.13;9.82;;;11.00;51.30;;;;;;5021758;28;20055;-82
2022/02/25 07:11:20;;;;;;;17.05;9.38;;;11.10;51.10;;;;;;5039278;28;20036;-83
2022/02/25 07:13:47;;;;;;;18.52;9.55;;;11.20;51.10;;;;;;5042809;28;20526;-82
2022/02/25 07:16:13;;;;;;;19.77;9.85;;;11.20;50.80;;;;;;5021159;28;20124;-82
2022/02/25 07:18:39;;;;;;;16.80;9.90;;;11.20;50.80;;;;;;5056998;28;20060;-82
2022/02/25 07:21:05;;;;;;;18.20;10.40;;;11.30;50.60;;;;;;5056564;28;20067;-81
2022/02/25 07:23:31;;;;;;;14.68;9.63;;;11.30;50.60;;;;;;5024475;28;20033;-82
2022/02/25 07:25:57;;;;;;;18.75;9.70;;;11.40;50.60;;;;;;5056821;28;20040;-82
2022/02/25 07:28:22;;;;;;;15.35;9.50;;;11.40;50.40;;;;;;5037543;28;20127;-81
2022/02/25 07:30:48;;;;;;;14.73;9.68;;;11.40;50.30;;;;;;5055604;28;20065;-82
2022/02/25 07:33:14;;;;;;;15.27;10.52;;;11.40;50.40;;;;;;5053809;28;20071;-81
2022/02/25 07:35:40;;;;;;;16.08;9.95;;;11.50;50.50;;;;;;5058148;28;20060;-82
2022/02/25 07:38:06;;;;;;;15.50;10.30;;;11.50;50.50;;;;;;5039562;28;20032;-80
2022/02/25 07:40:32;;;;;;;18.42;10.40;;;11.60;50.40;;;;;;5038327;28;20043;-82
2022/02/25 07:42:59;;;;;;;13.18;9.55;;;11.60;50.60;;;;;;5056819;28;20047;-81
2022/02/25 07:45:27;;;;;;;12.20;9.15;;;11.70;50.50;;;;;;5038511;28;20049;-81
2022/02/25 07:47:53;;;;;;;14.35;9.80;;;11.70;50.50;;;;;;5038920;28;20054;-82
2022/02/25 07:50:19;;;;;;;19.38;10.50;;;11.70;50.30;;;;;;5038035;28;20033;-82
2022/02/25 07:52:45;;;;;;;25.00;9.68;;;11.80;50.40;;;;;;5056420;28;20033;-82
2022/02/25 07:55:12;;;;;;;21.38;10.10;;;11.80;50.40;;;;;;5054990;28;20036;-81
2022/02/25 07:57:38;;;;;;;18.65;9.18;;;11.80;50.20;;;;;;5055334;28;20058;-82
2022/02/25 08:00:05;;;;;;;18.42;10.48;;;11.90;50.50;;;;;;5054241;28;20037;-83
2022/02/25 08:02:38;;;;;;;17.55;10.15;;;11.90;50.40;;;;;;5054871;28;20029;-81
2022/02/25 08:05:04;;;;;;;15.40;10.23;;;11.90;50.30;;;;;;5055070;28;20132;-81
2022/02/25 08:07:32;;;;;;;15.95;9.95;;;11.90;50.50;;;;;;5041078;28;20404;-82
2022/02/25 08:09:58;;;;;;;16.48;9.88;;;11.90;50.30;;;;;;5036972;28;20037;-76
2022/02/25 08:12:24;;;;;;;17.02;10.40;;;11.90;50.30;;;;;;5056136;28;20128;-82
2022/02/25 08:15:08;;;;;;;14.68;10.35;;;11.90;50.30;;;;;;5038029;28;20399;-83
2022/02/25 08:17:38;;;;;;;16.95;10.13;;;11.90;50.40;;;;;;5054808;28;20033;-81
2022/02/25 08:20:05;;;;;;;20.23;11.00;;;11.90;50.30;;;;;;5026226;28;20036;-88
2022/02/25 08:22:32;;;;;;;20.25;12.05;;;11.90;50.20;;;;;;5055369;28;20041;-87
2022/02/25 08:24:58;;;;;;;18.85;11.35;;;11.80;49.70;;;;;;5046160;28;20044;-89
2022/02/25 08:27:24;;;;;;;19.27;10.90;;;11.80;49.60;;;;;;5005485;28;20393;-86
2022/02/25 08:29:50;;;;;;;13.88;10.35;;;11.70;50.10;;;;;;5041553;28;20399;-87
2022/02/25 08:32:16;;;;;;;15.43;10.25;;;11.70;50.10;;;;;;5058692;28;20025;-90
2022/02/25 08:34:42;;;;;;;15.95;10.38;;;11.70;50.40;;;;;;5057208;28;20036;-82
2022/02/25 08:37:08;;;;;;;18.00;10.30;;;11.60;50.70;;;;;;5057929;28;20037;-86
2022/02/25 08:39:34;;;;;;;15.95;9.23;;;11.60;51.00;;;;;;5055522;28;20033;-88
2022/02/25 08:42:00;;;;;;;15.63;9.68;;;11.60;51.30;;;;;;5055237;28;20032;-89
2022/02/25 08:44:26;;;;;;;12.85;9.77;;;11.60;51.20;;;;;;5017891;28;20043;-87
2022/02/25 08:46:52;;;;;;;11.63;9.18;;;11.60;51.10;;;;;;5055161;28;20037;-79
2022/02/25 08:49:18;;;;;;;11.98;9.63;;;11.60;51.30;;;;;;5037212;28;20077;-83
2022/02/25 08:51:47;;;;;;;16.67;9.90;;;11.60;51.30;;;;;;5038069;28;20033;-89
2022/02/25 08:54:16;;;;;;;14.50;9.52;;;11.60;51.20;;;;;;5036676;28;20033;-89
2022/02/25 08:56:43;;;;;;;14.65;8.95;;;11.60;51.20;;;;;;5036585;28;20123;-82
2022/02/25 08:59:09;;;;;;;13.68;9.23;;;11.60;51.30;;;;;;5055700;28;20028;-83
2022/02/25 09:01:35;;;;;;;14.02;9.88;;;11.60;51.10;;;;;;5054498;28;20033;-88
2022/02/25 09:04:01;;;;;;;14.55;9.85;;;11.60;51.20;;;;;;5037178;28;20060;-83
2022/02/25 09:06:29;;;;;;;19.77;9.77;;;11.60;51.20;;;;;;5036875;28;20041;-87
2022/02/25 09:08:56;;;;;;;15.10;9.55;;;11.60;51.20;;;;;;5053862;28;20127;-88
2022/02/25 09:11:22;;;;;;;15.23;8.77;;;11.60;51.00;;;;;;5054034;28;20043;-83
2022/02/25 09:13:50;;;;;;;13.20;9.05;;;11.50;50.70;;;;;;5054434;28;20038;-86
2022/02/25 09:16:16;;;;;;;11.02;8.35;;;11.50;50.60;;;;;;5054632;28;20067;-86
2022/02/25 09:18:42;;;;;;;13.75;9.43;;;11.50;50.70;;;;;;5055031;28;20519;-84
2022/02/25 09:21:08;;;;;;;12.32;8.73;;;11.40;50.80;;;;;;5041260;28;20053;-86
2022/02/25 09:23:34;;;;;;;11.93;8.95;;;11.40;50.70;;;;;;5038867;28;20404;-84
2022/02/25 09:26:00;;;;;;;13.50;8.50;;;11.30;50.70;;;;;;5024919;28;20039;-82
2022/02/25 09:28:26;;;;;;;11.90;8.15;;;11.30;50.80;;;;;;5055000;28;20449;-80
2022/02/25 09:30:56;;;;;;;9.90;7.70;;;11.40;51.00;;;;;;5035382;28;20033;-80
2022/02/25 09:33:22;;;;;;;12.23;7.65;;;11.40;51.20;;;;;;5036562;28;20099;-80
2022/02/25 09:35:47;;;;;;;11.63;7.93;;;11.30;51.60;;;;;;5053907;28;20523;-80
2022/02/25 09:38:13;;;;;;;14.02;8.10;;;11.40;51.90;;;;;;5055326;28;20036;-80
2022/02/25 09:40:39;;;;;;;10.77;7.60;;;11.40;51.70;;;;;;5054199;28;20277;-80
2022/02/25 09:43:05;;;;;;;11.93;7.38;;;11.40;51.70;;;;;;5054972;28;20033;-81
2022/02/25 09:45:32;;;;;;;9.48;6.90;;;11.40;51.50;;;;;;5053307;28;20043;-81
2022/02/25 09:48:06;;;;;;;12.30;7.30;;;11.40;51.10;;;;;;5053984;28;20043;-81
2022/02/25 09:50:32;;;;;;;10.63;7.55;;;11.40;51.30;;;;;;5052761;28;20439;-81
2022/02/25 09:52:58;;;;;;;11.02;7.25;;;11.40;51.00;;;;;;5047941;28;20076;-78
2022/02/25 09:55:33;;;;;;;9.98;7.13;;;11.40;50.90;;;;;;5034586;28;20048;-78
2022/02/25 09:58:04;;;;;;;11.40;7.30;;;11.40;50.80;;;;;;5023620;28;20029;-80
2022/02/25 10:00:36;;;;;;;10.45;6.95;;;11.40;50.70;;;;;;5052055;28;20086;-78
2022/02/25 10:03:06;;;;;;;10.48;7.25;;;11.40;50.50;;;;;;5054457;28;20056;-79
2022/02/25 10:05:34;;;;;;;10.52;7.72;;;11.40;50.50;;;;;;5053796;28;20049;-78
2022/02/25 10:08:19;;;;;;;11.90;7.35;;;11.40;50.30;;;;;;5020131;28;20097;-78
2022/02/25 10:10:55;;;;;;;11.82;6.95;;;11.30;50.10;;;;;;5052174;28;20054;-79
2022/02/25 10:13:26;;;;;;;12.30;7.18;;;11.30;49.60;;;;;;5034933;28;20040;-79
2022/02/25 10:15:56;;;;;;;10.40;6.82;;;11.30;50.10;;;;;;5053426;28;20064;-79
2022/02/25 10:18:26;;;;;;;9.35;6.30;;;11.30;50.10;;;;;;5021076;28;20040;-79
2022/02/25 10:21:07;;;;;;;9.27;6.75;;;11.30;50.30;;;;;;5053247;28;20041;-79
2022/02/25 10:23:37;;;;;;;9.98;6.45;;;11.30;50.40;;;;;;5054712;28;20032;-79
2022/02/25 10:26:11;;;;;;;12.18;7.22;;;11.30;50.20;;;;;;5053059;28;20434;-79
2022/02/25 10:28:40;;;;;;;13.60;6.65;;;11.20;50.10;;;;;;5035173;28;20574;-78
2022/02/25 10:31:23;;;;;;;9.43;6.78;;;11.30;50.00;;;;;;5054229;28;20039;-78
2022/02/25 10:33:59;;;;;;;12.20;6.78;;;11.30;50.00;;;;;;5034956;28;20039;-78
2022/02/25 10:36:41;;;;;;;11.73;6.45;;;11.30;50.20;;;;;;5051850;28;20062;-78
2022/02/25 10:39:08;;;;;;;8.65;6.43;;;11.30;49.80;;;;;;5053255;28;20075;-78
2022/02/25 10:41:34;;;;;;;8.55;6.28;;;11.20;50.10;;;;;;5035689;28;20033;-77
2022/02/25 10:44:00;;;;;;;12.00;7.25;;;11.30;49.80;;;;;;5054840;28;20033;-79
2022/02/25 10:46:26;;;;;;;9.90;6.35;;;11.30;49.70;;;;;;5051783;28;20043;-79
2022/02/25 10:49:04;;;;;;;8.65;6.10;;;11.20;49.80;;;;;;5053077;28;20033;-77
2022/02/25 10:51:37;;;;;;;9.45;6.15;;;11.30;50.10;;;;;;5053274;28;20028;-77
2022/02/25 10:54:04;;;;;;;9.60;6.63;;;11.30;49.90;;;;;;5035758;28;20033;-77
2022/02/25 10:56:43;;;;;;;8.02;5.40;;;11.30;49.70;;;;;;5053077;28;20060;-78
2022/02/25 10:59:11;;;;;;;8.52;6.10;;;11.30;49.90;;;;;;5053448;28;20036;-80
2022/02/25 11:01:38;;;;;;;8.15;6.05;;;11.30;50.10;;;;;;5052144;28;20479;-79
2022/02/25 11:04:10;;;;;;;9.68;6.10;;;11.30;50.20;;;;;;5052286;28;20127;-82
2022/02/25 11:06:36;;;;;;;9.13;5.95;;;11.30;49.60;;;;;;5015810;28;20033;-84
2022/02/25 11:09:04;;;;;;;8.55;6.22;;;11.30;49.30;;;;;;5054201;28;20037;-81
2022/02/25 11:11:31;;;;;;;8.98;5.85;;;11.30;49.20;;;;;;5051112;28;20389;-82
2022/02/25 11:13:58;;;;;;;8.80;6.28;;;11.30;49.10;;;;;;5055049;28;20064;-83
2022/02/25 11:16:26;;;;;;;9.88;5.97;;;11.20;49.00;;;;;;5052872;28;20029;-83
2022/02/25 11:18:53;;;;;;;10.10;6.15;;;11.20;48.80;;;;;;5067381;28;20032;-82
2022/02/25 11:21:20;;;;;;;9.68;5.60;;;11.20;49.20;;;;;;5052121;28;20542;-83
2022/02/25 11:23:47;;;;;;;10.40;6.28;;;11.20;49.20;;;;;;5034237;28;20214;-85
2022/02/25 11:26:16;;;;;;;7.20;5.82;;;11.10;49.40;;;;;;5017665;28;20040;-84
2022/02/25 11:28:43;;;;;;;13.80;6.38;;;11.20;49.30;;;;;;5054501;28;20145;-79
2022/02/25 11:31:32;;;;;;;9.18;5.38;;;11.10;49.00;;;;;;5055834;28;20131;-79
2022/02/25 11:34:00;;;;;;;8.88;5.28;;;11.10;49.60;;;;;;5027285;28;20090;-79
2022/02/25 11:36:55;;;;;;;8.05;4.53;;;11.20;50.30;;;;;;5056312;28;20047;-77
2022/02/25 11:39:28;;;;;;;7.00;3.78;;;11.20;51.50;;;;;;5030966;28;20040;-76
2022/02/25 11:41:58;;;;;;;9.02;3.85;;;11.30;52.30;;;;;;5055384;28;20045;-79
2022/02/25 11:44:24;;;;;;;5.60;3.70;;;11.40;52.80;;;;;;5057505;28;20538;-78
2022/02/25 11:46:51;;;;;;;5.75;3.78;;;11.40;53.20;;;;;;5055964;28;20436;-77
2022/02/25 11:49:23;;;;;;;7.20;3.92;;;11.50;53.60;;;;;;5055184;28;20041;-78
2022/02/25 11:51:52;;;;;;;7.70;4.07;;;11.50;53.90;;;;;;5054775;28;20553;-79
2022/02/25 11:54:21;;;;;;;6.95;3.92;;;11.60;54.20;;;;;;5055595;28;20377;-78
2022/02/25 11:56:56;;;;;;;5.75;3.75;;;11.60;54.30;;;;;;5036793;28;20072;-79
2022/02/25 11:59:23;;;;;;;5.30;3.60;;;11.60;54.40;;;;;;5057441;28;20106;-76
2022/02/25 12:02:12;;;;;;;5.07;3.45;;;11.70;54.60;;;;;;5071899;28;20070;-78
2022/02/25 12:04:44;;;;;;;5.38;4.25;;;11.70;54.80;;;;;;5055554;28;20079;-78
2022/02/25 12:07:16;;;;;;;6.10;4.63;;;11.70;54.80;;;;;;5056520;28;20029;-79
2022/02/25 12:09:52;;;;;;;6.38;4.13;;;11.70;54.90;;;;;;5053757;28;20033;-78
2022/02/25 12:12:24;;;;;;;8.25;3.67;;;11.80;55.10;;;;;;5020438;28;20040;-78
2022/02/25 12:15:16;;;;;;;6.28;3.95;;;11.80;55.20;;;;;;5055215;28;20061;-79
2022/02/25 12:17:51;;;;;;;6.28;3.85;;;11.80;55.30;;;;;;5026160;28;20114;-80
2022/02/25 12:20:21;;;;;;;4.70;3.45;;;11.80;55.30;;;;;;5055835;28;20037;-81
2022/02/25 12:23:01;;;;;;;7.47;4.28;;;11.90;55.50;;;;;;5038122;28;20068;-79
2022/02/25 12:25:42;;;;;;;7.47;4.10;;;11.90;55.50;;;;;;4995614;28;20040;-83
2022/02/25 12:28:22;;;;;;;4.95;3.90;;;11.90;55.50;;;;;;5054109;28;20040;-82
2022/02/25 12:31:09;;;;;;;7.28;4.20;;;11.90;55.50;;;;;;5020596;28;20466;-79
2022/02/25 12:33:43;;;;;;;4.95;3.83;;;11.90;55.60;;;;;;5054486;28;20041;-81
2022/02/25 12:36:27;;;;;;;6.72;3.65;;;12.00;55.70;;;;;;5056393;28;20127;-83
2022/02/25 12:39:07;;;;;;;5.13;3.58;;;12.00;55.80;;;;;;5021118;28;20044;-81
2022/02/25 12:41:38;;;;;;;6.28;3.50;;;12.00;55.90;;;;;;5008666;28;20117;-82
2022/02/25 12:44:20;;;;;;;4.97;3.33;;;12.00;55.90;;;;;;5052618;28;20444;-81
2022/02/25 12:46:51;;;;;;;9.77;3.72;;;12.00;56.00;;;;;;5051996;28;20037;-80
2022/02/25 12:49:19;;;;;;;4.70;3.13;;;12.10;56.10;;;;;;5037072;28;20037;-83
2022/02/25 12:51:46;;;;;;;6.93;3.40;;;12.10;56.10;;;;;;5033497;28;20056;-82
2022/02/25 12:54:15;;;;;;;4.65;3.38;;;12.10;56.10;;;;;;5026622;28;20504;-83